Time;durP1;ratioP1;P1;durP2;ratioP2;P2;SDS_P1;SDS_P2;PMS_P1;PMS_P2;Temp;Humidity;BMP_temperature;BMP_pressure;BME280_temperature;BME280_humidity;BME280_pressure;Samples;Min_cycle;Max_cycle;Signal;HPM_P1;HPM_P2
2023/10/29 00:00:17;;;;;;;11.85;3.38;;;;;;;;;;5076570;28;20488;-74
2023/10/29 00:02:44;;;;;;;;;;;;;;;;;;5077340;28;20094;-73
2023/10/29 00:05:10;;;;;;;9.95;3.33;;;;;;;;;;5094826;28;19920;-75
2023/10/29 00:07:36;;;;;;;7.10;3.13;;;;;;;;;;5094827;28;20048;-73
2023/10/29 00:10:02;;;;;;;8.00;2.97;;;;;;;;;;5076598;28;20369;-74
2023/10/29 00:12:29;;;;;;;5.57;2.70;;;;;;;;;;5094805;28;20123;-73
2023/10/29 00:14:55;;;;;;;6.00;2.38;;;;;;;;;;5095149;28;20048;-75
2023/10/29 00:17:21;;;;;;;7.40;2.75;;;;;;;;;;5094486;28;20145;-71
2023/10/29 00:19:50;;;;;;;8.50;2.45;;;;;;;;;;5094524;28;20074;-73
2023/10/29 00:22:16;;;;;;;5.10;2.08;;;;;;;;;;5094140;28;20094;-72
2023/10/29 00:24:42;;;;;;;6.90;2.70;;;;;;;;;;5060060;28;20055;-75
2023/10/29 00:27:09;;;;;;;4.88;2.20;;;;;;;;;;5077296;28;20460;-73
2023/10/29 00:29:35;;;;;;;9.50;2.83;;;;;;;;;;5094611;28;20047;-75
2023/10/29 00:32:01;;;;;;;7.88;2.60;;;;;;;;;;5094400;28;20059;-75
2023/10/29 00:34:27;;;;;;;7.90;3.15;;;;;;;;;;5076128;28;20048;-74
2023/10/29 00:36:53;;;;;;;7.82;2.80;;;;;;;;;;5094184;28;20054;-73
2023/10/29 00:39:19;;;;;;;5.13;2.53;;;;;;;;;;5094177;28;20510;-73
2023/10/29 00:41:45;;;;;;;7.18;2.88;;;;;;;;;;5076029;28;20126;-73
2023/10/29 00:44:11;;;;;;;6.57;3.10;;;;;;;;;;5094074;28;20486;-73
2023/10/29 00:46:40;;;;;;;7.30;2.95;;;;;;;;;;5076886;28;20384;-76
2023/10/29 00:49:06;;;;;;;8.38;2.90;;;;;;;;;;5093981;28;20052;-75
2023/10/29 00:51:32;;;;;;;6.70;3.28;;;;;;;;;;5094365;28;20044;-77
2023/10/29 00:53:59;;;;;;;7.77;3.07;;;;;;;;;;5075802;28;20097;-74
2023/10/29 00:56:25;;;;;;;6.57;3.10;;;;;;;;;;5075719;28;20477;-74
2023/10/29 00:58:51;;;;;;;7.47;3.08;;;;;;;;;;5076702;28;20543;-75
2023/10/29 01:01:18;;;;;;;6.87;3.43;;;;;;;;;;5075714;28;20040;-77
2023/10/29 01:03:44;;;;;;;6.07;2.95;;;;;;;;;;5093483;28;20134;-73
2023/10/29 01:06:11;;;;;;;7.28;3.28;;;;;;;;;;5093660;28;20131;-75
2023/10/29 01:08:37;;;;;;;6.32;3.25;;;;;;;;;;5075758;28;20460;-72
2023/10/29 01:11:05;;;;;;;7.13;3.50;;;;;;;;;;5075778;28;20055;-73
2023/10/29 01:13:32;;;;;;;6.35;3.38;;;;;;;;;;5075603;28;20048;-72
2023/10/29 01:15:58;;;;;;;10.15;3.25;;;;;;;;;;5093562;28;20058;-70
2023/10/29 01:18:24;;;;;;;8.07;3.80;;;;;;;;;;5093599;28;20044;-72
2023/10/29 01:20:50;;;;;;;8.55;3.67;;;;;;;;;;5075974;28;20044;-73
2023/10/29 01:23:17;;;;;;;7.03;3.27;;;;;;;;;;5093793;28;20090;-70
2023/10/29 01:25:44;;;;;;;8.68;3.20;;;;;;;;;;5075578;28;20364;-72
2023/10/29 01:28:10;;;;;;;7.37;3.17;;;;;;;;;;5093552;28;20079;-74
2023/10/29 01:30:36;;;;;;;9.07;3.00;;;;;;;;;;5093465;28;20044;-72
2023/10/29 01:33:02;;;;;;;6.00;2.38;;;;;;;;;;5076405;28;20049;-75
2023/10/29 01:35:28;;;;;;;6.25;2.60;;;;;;;;;;5094037;28;20047;-76
2023/10/29 01:37:54;;;;;;;6.45;2.42;;;;;;;;;;5075318;28;20122;-72
2023/10/29 01:40:20;;;;;;;8.10;2.20;;;;;;;;;;5093281;28;20047;-74
2023/10/29 01:42:48;;;;;;;7.03;2.17;;;;;;;;;;5093217;28;20082;-73
2023/10/29 01:45:16;;;;;;;6.68;1.80;;;;;;;;;;5075944;28;20040;-74
2023/10/29 01:47:42;;;;;;;6.13;2.20;;;;;;;;;;5094607;28;20052;-74
2023/10/29 01:50:09;;;;;;;4.30;1.50;;;;;;;;;;5078449;28;20052;-73
2023/10/29 01:52:38;;;;;;;3.83;1.90;;;;;;;;;;5095099;28;20051;-74
2023/10/29 01:55:05;;;;;;;4.63;1.70;;;;;;;;;;5077200;28;20350;-73
2023/10/29 01:57:33;;;;;;;7.70;1.60;;;;;;;;;;5095988;28;20048;-70
2023/10/29 01:59:59;;;;;;;7.50;1.67;;;;;;;;;;5096316;28;20083;-74
2023/10/29 02:02:25;;;;;;;7.05;1.30;;;;;;;;;;5076465;28;20044;-75
2023/10/29 02:04:51;;;;;;;8.45;1.75;;;;;;;;;;5094445;28;20139;-71
2023/10/29 02:07:17;;;;;;;5.13;1.77;;;;;;;;;;5093375;28;20059;-74
2023/10/29 02:09:43;;;;;;;4.50;1.42;;;;;;;;;;5097397;28;20140;-74
2023/10/29 02:12:09;;;;;;;7.37;1.77;;;;;;;;;;5097101;28;20070;-72
2023/10/29 02:14:36;;;;;;;4.60;1.17;;;;;;;;;;5096787;28;20048;-72
2023/10/29 02:17:02;;;;;;;3.47;1.13;;;;;;;;;;5079070;28;20047;-74
2023/10/29 02:19:28;;;;;;;4.43;1.10;;;;;;;;;;5079200;28;20383;-73
2023/10/29 02:21:55;;;;;;;4.35;1.20;;;;;;;;;;5096884;28;20043;-75
2023/10/29 02:24:21;;;;;;;3.22;1.05;;;;;;;;;;5078757;28;20113;-72
2023/10/29 02:26:47;;;;;;;6.13;1.13;;;;;;;;;;5096661;28;20051;-72
2023/10/29 02:29:13;;;;;;;6.10;1.00;;;;;;;;;;5096665;28;20369;-71
2023/10/29 02:31:40;;;;;;;3.85;1.40;;;;;;;;;;5078556;28;20102;-73
2023/10/29 02:34:06;;;;;;;6.38;1.10;;;;;;;;;;5096757;28;20499;-73
2023/10/29 02:36:33;;;;;;;4.60;1.10;;;;;;;;;;5096453;28;20126;-71
2023/10/29 02:38:59;;;;;;;6.37;1.20;;;;;;;;;;5096516;28;20051;-72
2023/10/29 02:41:25;;;;;;;4.15;1.10;;;;;;;;;;5096163;28;20044;-71
2023/10/29 02:43:52;;;;;;;4.03;1.20;;;;;;;;;;5078725;28;20075;-72
2023/10/29 02:46:18;;;;;;;;;;;;;;;;;;5078863;28;20468;-72
2023/10/29 02:48:45;;;;;;;3.63;1.23;;;;;;;;;;5096231;28;19927;-72
2023/10/29 02:51:13;;;;;;;5.32;0.90;;;;;;;;;;5096858;28;20044;-70
2023/10/29 02:53:40;;;;;;;5.15;1.33;;;;;;;;;;5095988;28;20134;-70
2023/10/29 02:56:06;;;;;;;6.53;1.42;;;;;;;;;;5096063;28;20059;-72
2023/10/29 02:58:32;;;;;;;3.50;1.38;;;;;;;;;;5096284;28;20075;-70
2023/10/29 03:01:08;;;;;;;3.97;1.20;;;;;;;;;;5077826;28;20044;-71
2023/10/29 03:03:35;;;;;;;5.67;1.03;;;;;;;;;;5095975;28;20063;-71
2023/10/29 03:06:08;;;;;;;4.05;0.95;;;;;;;;;;5077869;28;20369;-72
2023/10/29 03:08:34;;;;;;;4.10;0.90;;;;;;;;;;5095868;28;20087;-71
2023/10/29 03:11:00;;;;;;;4.43;0.73;;;;;;;;;;5095918;28;20075;-71
2023/10/29 03:13:26;;;;;;;5.30;1.00;;;;;;;;;;5095755;28;20347;-72
2023/10/29 03:15:52;;;;;;;4.57;0.73;;;;;;;;;;5095773;28;20044;-71
2023/10/29 03:18:18;;;;;;;7.32;0.90;;;;;;;;;;5077920;28;20102;-74
2023/10/29 03:20:44;;;;;;;3.60;0.60;;;;;;;;;;5094404;28;20048;-73
2023/10/29 03:23:10;;;;;;;4.18;0.70;;;;;;;;;;5095686;28;20079;-71
2023/10/29 03:25:36;;;;;;;5.32;0.70;;;;;;;;;;5095647;28;20044;-73
2023/10/29 03:28:03;;;;;;;3.65;0.68;;;;;;;;;;5095587;28;20048;-70
2023/10/29 03:30:29;;;;;;;4.13;0.82;;;;;;;;;;5095900;28;20503;-71
2023/10/29 03:32:55;;;;;;;2.57;0.60;;;;;;;;;;5095933;28;20476;-74
2023/10/29 03:35:21;;;;;;;3.78;0.68;;;;;;;;;;5095443;28;20040;-72
2023/10/29 03:37:47;;;;;;;2.80;0.60;;;;;;;;;;5095393;28;20048;-72
2023/10/29 03:40:13;;;;;;;2.45;0.60;;;;;;;;;;5095321;28;20051;-71
2023/10/29 03:42:39;;;;;;;5.22;0.80;;;;;;;;;;5095117;28;20123;-73
2023/10/29 03:45:05;;;;;;;5.45;0.82;;;;;;;;;;5095238;28;20066;-73
2023/10/29 03:47:31;;;;;;;4.03;0.63;;;;;;;;;;5095136;28;20044;-72
2023/10/29 03:49:58;;;;;;;6.32;0.88;;;;;;;;;;5095992;28;20054;-72
2023/10/29 03:52:24;;;;;;;3.22;0.60;;;;;;;;;;5077914;28;20052;-71
2023/10/29 03:54:50;;;;;;;2.55;0.70;;;;;;;;;;5077359;28;20109;-72
2023/10/29 03:57:16;;;;;;;3.78;0.80;;;;;;;;;;5077283;28;20127;-69
2023/10/29 03:59:43;;;;;;;4.88;0.60;;;;;;;;;;5096904;28;20047;-75
2023/10/29 04:02:09;;;;;;;2.40;0.70;;;;;;;;;;5078626;28;20040;-74
2023/10/29 04:04:36;;;;;;;2.07;0.50;;;;;;;;;;5096679;28;20101;-73
2023/10/29 04:07:02;;;;;;;2.67;0.53;;;;;;;;;;5097281;28;20044;-70
2023/10/29 04:09:28;;;;;;;3.97;0.75;;;;;;;;;;5096510;28;20336;-73
2023/10/29 04:11:55;;;;;;;6.73;0.70;;;;;;;;;;5096466;28;20051;-75
2023/10/29 04:14:22;;;;;;;5.32;0.73;;;;;;;;;;5078474;28;20040;-75
2023/10/29 04:16:48;;;;;;;3.75;0.50;;;;;;;;;;5096357;28;20048;-76
2023/10/29 04:19:14;;;;;;;4.22;0.50;;;;;;;;;;5095295;28;20044;-76
2023/10/29 04:21:40;;;;;;;2.65;0.55;;;;;;;;;;5095388;28;20040;-73
2023/10/29 04:24:06;;;;;;;3.33;0.50;;;;;;;;;;5094672;28;20055;-72
2023/10/29 04:26:32;;;;;;;2.83;0.53;;;;;;;;;;5076711;28;20067;-78
2023/10/29 04:28:59;;;;;;;2.28;0.50;;;;;;;;;;5094862;28;20324;-74
2023/10/29 04:31:25;;;;;;;3.73;0.50;;;;;;;;;;5094070;28;20051;-77
2023/10/29 04:33:51;;;;;;;2.83;0.38;;;;;;;;;;5094844;28;20285;-74
2023/10/29 04:36:22;;;;;;;3.00;0.50;;;;;;;;;;5094269;28;20044;-75
2023/10/29 04:38:48;;;;;;;3.28;0.50;;;;;;;;;;5094317;28;20052;-75
2023/10/29 04:41:14;;;;;;;4.43;0.40;;;;;;;;;;5094769;28;20364;-75
2023/10/29 04:43:43;;;;;;;1.20;0.40;;;;;;;;;;5094037;28;20069;-76
2023/10/29 04:46:13;;;;;;;1.90;0.40;;;;;;;;;;5076693;28;20097;-75
2023/10/29 04:48:40;;;;;;;4.03;0.50;;;;;;;;;;5075732;28;20051;-75
2023/10/29 04:51:06;;;;;;;3.78;0.38;;;;;;;;;;5093826;28;20098;-79
2023/10/29 04:53:33;;;;;;;2.30;0.45;;;;;;;;;;5094660;28;20052;-79
2023/10/29 04:55:59;;;;;;;3.72;0.35;;;;;;;;;;5094239;28;20498;-76
2023/10/29 04:58:25;;;;;;;1.48;0.40;;;;;;;;;;5094236;28;20110;-80
2023/10/29 05:00:52;;;;;;;1.05;0.40;;;;;;;;;;5075660;28;20503;-77
2023/10/29 05:03:18;;;;;;;3.60;0.50;;;;;;;;;;5093621;28;20067;-76
2023/10/29 05:05:44;;;;;;;2.28;0.30;;;;;;;;;;5059686;28;20056;-79
2023/10/29 05:08:10;;;;;;;3.63;0.40;;;;;;;;;;5093945;28;20085;-75
2023/10/29 05:10:36;;;;;;;2.50;0.40;;;;;;;;;;5075944;28;20059;-72
2023/10/29 05:13:02;;;;;;;2.38;0.30;;;;;;;;;;5093593;28;20055;-76
2023/10/29 05:15:29;;;;;;;2.03;0.40;;;;;;;;;;5075614;28;20097;-76
2023/10/29 05:17:55;;;;;;;3.50;0.47;;;;;;;;;;5093158;28;20052;-77
2023/10/29 05:20:21;;;;;;;3.22;0.30;;;;;;;;;;5094280;28;20384;-76
2023/10/29 05:22:51;;;;;;;3.38;0.40;;;;;;;;;;5075974;28;20043;-76
2023/10/29 05:25:17;;;;;;;3.22;0.40;;;;;;;;;;5093913;28;20050;-77
2023/10/29 05:27:52;;;;;;;4.07;0.60;;;;;;;;;;5094554;28;20105;-75
2023/10/29 05:30:19;;;;;;;2.55;0.30;;;;;;;;;;5094051;28;20085;-78
2023/10/29 05:32:45;;;;;;;3.45;0.35;;;;;;;;;;5094499;28;20468;-75
2023/10/29 05:35:11;;;;;;;2.42;0.20;;;;;;;;;;5093971;28;20047;-75
2023/10/29 05:37:37;;;;;;;2.50;0.30;;;;;;;;;;5094642;28;20375;-77
2023/10/29 05:40:09;;;;;;;3.67;0.30;;;;;;;;;;5093285;28;20098;-77
2023/10/29 05:42:35;;;;;;;2.30;0.40;;;;;;;;;;5093503;28;20051;-77
2023/10/29 05:45:01;;;;;;;3.87;0.43;;;;;;;;;;5097402;28;20423;-75
2023/10/29 05:47:28;;;;;;;1.20;0.30;;;;;;;;;;5098088;28;20434;-77
2023/10/29 05:49:54;;;;;;;4.05;0.60;;;;;;;;;;5097963;28;20079;-76
2023/10/29 05:52:20;;;;;;;3.08;0.50;;;;;;;;;;5097815;28;20149;-75
2023/10/29 05:54:47;;;;;;;2.72;0.30;;;;;;;;;;5079543;28;20123;-77
2023/10/29 05:57:13;;;;;;;3.25;0.40;;;;;;;;;;5096733;28;20509;-79
2023/10/29 05:59:39;;;;;;;1.88;0.30;;;;;;;;;;5097021;28;20048;-75
2023/10/29 06:02:05;;;;;;;4.07;0.35;;;;;;;;;;5062474;28;20047;-78
2023/10/29 06:04:31;;;;;;;4.30;0.27;;;;;;;;;;5097557;28;20051;-75
2023/10/29 06:06:57;;;;;;;3.23;0.30;;;;;;;;;;5079079;28;20052;-76
2023/10/29 06:09:24;;;;;;;5.63;0.40;;;;;;;;;;5078790;28;20297;-75
2023/10/29 06:11:50;;;;;;;2.00;0.30;;;;;;;;;;5061950;28;20373;-73
2023/10/29 06:14:16;;;;;;;1.95;0.28;;;;;;;;;;5096898;28;20048;-77
2023/10/29 06:16:42;;;;;;;2.97;0.30;;;;;;;;;;5096894;28;20527;-76
2023/10/29 06:19:09;;;;;;;4.43;0.40;;;;;;;;;;5096517;28;20561;-76
2023/10/29 06:21:35;;;;;;;2.33;0.40;;;;;;;;;;5078689;28;20143;-75
2023/10/29 06:24:01;;;;;;;1.80;0.30;;;;;;;;;;5096686;28;20046;-76
2023/10/29 06:26:27;;;;;;;1.48;0.30;;;;;;;;;;5078494;28;20052;-74
2023/10/29 06:28:53;;;;;;;2.95;0.30;;;;;;;;;;5096459;28;20083;-74
2023/10/29 06:31:19;;;;;;;2.08;0.20;;;;;;;;;;5078739;28;20113;-73
2023/10/29 06:33:45;;;;;;;2.33;0.30;;;;;;;;;;5062190;28;20601;-74
2023/10/29 06:36:11;;;;;;;3.00;0.17;;;;;;;;;;5079315;28;20036;-76
2023/10/29 06:38:37;;;;;;;7.20;0.43;;;;;;;;;;5078475;28;20109;-75
2023/10/29 06:41:04;;;;;;;2.05;0.30;;;;;;;;;;5096169;28;20044;-73
2023/10/29 06:43:30;;;;;;;1.25;0.20;;;;;;;;;;5096963;28;20071;-73
2023/10/29 06:45:56;;;;;;;2.00;0.22;;;;;;;;;;5096217;28;20075;-74
2023/10/29 06:48:22;;;;;;;4.03;0.30;;;;;;;;;;5078594;28;20453;-75
2023/10/29 06:50:48;;;;;;;2.83;0.30;;;;;;;;;;5079147;28;20039;-74
2023/10/29 06:53:15;;;;;;;3.80;0.30;;;;;;;;;;5080408;28;20040;-74
2023/10/29 06:55:42;;;;;;;1.67;0.30;;;;;;;;;;5099183;28;20051;-73
2023/10/29 06:58:08;;;;;;;;;;;;;;;;;;5082589;28;20044;-72
2023/10/29 07:00:34;;;;;;;1.63;0.28;;;;;;;;;;5080480;28;20250;-72
2023/10/29 07:03:00;;;;;;;4.22;0.30;;;;;;;;;;5063948;28;20048;-72
2023/10/29 07:05:26;;;;;;;3.92;0.30;;;;;;;;;;5097213;28;20051;-73
2023/10/29 07:07:52;;;;;;;3.97;0.30;;;;;;;;;;5097407;28;20075;-71
2023/10/29 07:10:18;;;;;;;4.27;0.30;;;;;;;;;;5096440;28;20422;-72
2023/10/29 07:12:44;;;;;;;5.18;0.35;;;;;;;;;;5077671;28;20282;-71
2023/10/29 07:15:11;;;;;;;1.67;0.38;;;;;;;;;;5077556;28;20119;-73
2023/10/29 07:17:37;;;;;;;5.82;1.00;;;;;;;;;;5096549;28;20035;-74
2023/10/29 07:20:08;;;;;;;4.47;0.40;;;;;;;;;;5096000;28;20066;-72
2023/10/29 07:22:34;;;;;;;3.00;0.40;;;;;;;;;;5078047;28;20440;-72
2023/10/29 07:25:00;;;;;;;3.35;0.40;;;;;;;;;;5061018;28;20114;-75
2023/10/29 07:27:26;;;;;;;4.28;0.45;;;;;;;;;;5095921;28;20071;-72
2023/10/29 07:29:53;;;;;;;3.70;0.30;;;;;;;;;;5095609;28;20101;-73
2023/10/29 07:32:19;;;;;;;5.68;0.40;;;;;;;;;;5095325;28;20278;-74
2023/10/29 07:34:46;;;;;;;1.42;0.30;;;;;;;;;;5078282;28;20075;-71
2023/10/29 07:37:12;;;;;;;6.10;0.30;;;;;;;;;;5077288;28;20130;-73
2023/10/29 07:39:38;;;;;;;3.75;0.30;;;;;;;;;;5095395;28;20280;-73
2023/10/29 07:42:04;;;;;;;5.43;0.47;;;;;;;;;;5095617;28;20036;-73
2023/10/29 07:44:30;;;;;;;11.53;0.50;;;;;;;;;;5095329;28;20270;-72
2023/10/29 07:46:59;;;;;;;4.88;0.40;;;;;;;;;;5077966;28;20043;-73
2023/10/29 07:49:25;;;;;;;3.53;0.63;;;;;;;;;;5060551;28;20468;-73
2023/10/29 07:51:51;;;;;;;3.30;0.38;;;;;;;;;;5077643;28;20467;-73
2023/10/29 07:54:17;;;;;;;5.70;0.45;;;;;;;;;;5095688;28;20066;-74
2023/10/29 07:56:43;;;;;;;4.78;0.30;;;;;;;;;;5095038;28;20142;-74
2023/10/29 07:59:09;;;;;;;3.85;0.43;;;;;;;;;;5094646;28;20480;-74
2023/10/29 08:01:35;;;;;;;3.05;0.32;;;;;;;;;;5095610;28;20055;-73
2023/10/29 08:04:01;;;;;;;6.65;0.30;;;;;;;;;;5094997;28;20052;-75
2023/10/29 08:06:28;;;;;;;6.15;0.40;;;;;;;;;;5094270;28;20044;-74
2023/10/29 08:08:54;;;;;;;4.27;0.20;;;;;;;;;;5095006;28;20396;-76
2023/10/29 08:11:20;;;;;;;5.03;0.33;;;;;;;;;;5094527;28;20381;-72
2023/10/29 08:13:47;;;;;;;2.10;0.30;;;;;;;;;;5095287;28;20051;-75
2023/10/29 08:16:16;;;;;;;6.53;0.38;;;;;;;;;;5094821;28;20047;-76
2023/10/29 08:18:42;;;;;;;3.17;0.30;;;;;;;;;;5076648;28;20052;-74
2023/10/29 08:21:08;;;;;;;3.25;0.17;;;;;;;;;;5094885;28;20487;-74
2023/10/29 08:23:34;;;;;;;3.33;0.30;;;;;;;;;;5094708;28;20098;-75
2023/10/29 08:26:00;;;;;;;4.65;0.77;;;;;;;;;;5094603;28;20282;-75
2023/10/29 08:28:27;;;;;;;3.40;0.50;;;;;;;;;;5094532;28;20090;-75
2023/10/29 08:30:54;;;;;;;6.00;0.47;;;;;;;;;;5093957;28;20052;-74
2023/10/29 08:33:20;;;;;;;3.90;0.22;;;;;;;;;;5095114;28;20130;-75
2023/10/29 08:35:47;;;;;;;3.95;0.40;;;;;;;;;;5094717;28;20040;-76
2023/10/29 08:38:13;;;;;;;2.25;0.40;;;;;;;;;;5094803;28;20079;-75
2023/10/29 08:40:39;;;;;;;4.93;0.30;;;;;;;;;;5094190;28;20047;-73
2023/10/29 08:43:06;;;;;;;4.40;0.40;;;;;;;;;;5094120;28;20060;-74
2023/10/29 08:45:32;;;;;;;2.33;0.35;;;;;;;;;;5094286;28;20487;-80
2023/10/29 08:47:58;;;;;;;4.20;0.30;;;;;;;;;;5093778;28;20044;-74
2023/10/29 08:50:24;;;;;;;4.72;0.57;;;;;;;;;;5093854;28;20532;-72
2023/10/29 08:52:50;;;;;;;5.25;0.40;;;;;;;;;;5076298;28;20084;-76
2023/10/29 08:55:16;;;;;;;4.90;0.40;;;;;;;;;;5043017;28;20052;-73
2023/10/29 08:57:43;;;;;;;6.00;0.40;;;;;;;;;;5075734;28;20040;-76
2023/10/29 09:00:09;;;;;;;6.10;0.40;;;;;;;;;;5094306;28;20047;-76
2023/10/29 09:02:35;;;;;;;3.95;0.35;;;;;;;;;;5093568;28;20500;-73
2023/10/29 09:05:02;;;;;;;4.15;0.32;;;;;;;;;;5076239;28;20109;-80
2023/10/29 09:07:28;;;;;;;6.17;0.40;;;;;;;;;;5095120;28;20056;-74
2023/10/29 09:09:54;;;;;;;5.45;0.52;;;;;;;;;;5042915;28;20336;-76
2023/10/29 09:12:21;;;;;;;3.72;0.40;;;;;;;;;;5095340;28;20043;-75
2023/10/29 09:14:48;;;;;;;8.18;0.40;;;;;;;;;;5059805;28;20107;-75
2023/10/29 09:17:14;;;;;;;4.63;0.40;;;;;;;;;;5043286;28;20056;-73
2023/10/29 09:19:41;;;;;;;2.28;0.40;;;;;;;;;;5043942;28;20130;-75
2023/10/29 09:22:07;;;;;;;11.67;0.80;;;;;;;;;;5093860;28;20053;-73
2023/10/29 09:24:34;;;;;;;7.22;0.60;;;;;;;;;;5076149;28;20130;-77
2023/10/29 09:27:03;;;;;;;5.88;0.50;;;;;;;;;;5075666;28;20040;-74
2023/10/29 09:29:31;;;;;;;8.85;0.60;;;;;;;;;;5076071;28;20384;-71
2023/10/29 09:31:58;;;;;;;7.78;0.80;;;;;;;;;;5094317;28;20047;-74
2023/10/29 09:34:24;;;;;;;12.40;0.80;;;;;;;;;;5075625;28;20052;-74
2023/10/29 09:36:51;;;;;;;6.63;0.70;;;;;;;;;;5093776;28;20043;-75
2023/10/29 09:39:17;;;;;;;7.75;0.50;;;;;;;;;;5076343;28;20424;-74
2023/10/29 09:41:44;;;;;;;7.75;0.70;;;;;;;;;;5058681;28;20061;-76
2023/10/29 09:44:17;;;;;;;8.13;0.65;;;;;;;;;;5093446;28;20048;-73
2023/10/29 09:46:51;;;;;;;6.68;0.80;;;;;;;;;;5093666;28;20468;-73
2023/10/29 09:49:21;;;;;;;9.45;0.65;;;;;;;;;;5058699;28;20047;-74
2023/10/29 09:51:48;;;;;;;5.60;0.63;;;;;;;;;;5058810;28;20088;-74
2023/10/29 09:54:23;;;;;;;6.72;0.57;;;;;;;;;;5095386;28;20097;-72
2023/10/29 10:00:49;;;;;;;6.28;0.52;;;;;;;;;;5032836;28;20044;-70
2023/10/29 10:03:16;;;;;;;7.22;0.63;;;;;;;;;;5093786;28;20051;-73
2023/10/29 10:05:43;;;;;;;5.97;0.77;;;;;;;;;;5094249;28;20475;-78
2023/10/29 10:08:09;;;;;;;6.40;0.63;;;;;;;;;;5094416;28;20480;-76
2023/10/29 10:10:38;;;;;;;14.07;0.80;;;;;;;;;;5076613;28;20595;-75
2023/10/29 10:13:08;;;;;;;9.55;0.80;;;;;;;;;;5094066;28;20043;-76
2023/10/29 10:15:35;;;;;;;12.20;0.65;;;;;;;;;;5045525;28;20492;-74
2023/10/29 10:18:04;;;;;;;6.18;0.52;;;;;;;;;;5061092;28;20063;-74
2023/10/29 10:20:31;;;;;;;6.90;0.75;;;;;;;;;;5078154;28;20044;-75
2023/10/29 10:23:03;;;;;;;6.35;0.75;;;;;;;;;;5078494;28;20122;-78
2023/10/29 10:25:30;;;;;;;12.27;0.80;;;;;;;;;;5076038;28;20047;-74
2023/10/29 10:27:57;;;;;;;9.68;1.05;;;;;;;;;;5095550;28;20048;-76
2023/10/29 10:30:27;;;;;;;10.68;0.80;;;;;;;;;;5097774;28;20040;-72
2023/10/29 10:32:54;;;;;;;5.70;0.57;;;;;;;;;;5097093;28;20090;-75
2023/10/29 10:35:20;;;;;;;5.97;0.50;;;;;;;;;;5096677;28;20044;-76
2023/10/29 10:37:53;;;;;;;6.60;0.60;;;;;;;;;;5096548;28;20123;-74
2023/10/29 10:40:24;;;;;;;5.70;0.70;;;;;;;;;;5096150;28;20044;-77
2023/10/29 10:42:59;;;;;;;9.90;0.80;;;;;;;;;;5061490;28;20430;-75
2023/10/29 10:45:28;;;;;;;8.15;0.80;;;;;;;;;;5096080;28;20523;-74
2023/10/29 10:47:59;;;;;;;7.65;0.60;;;;;;;;;;5061823;28;20044;-75
2023/10/29 10:50:25;;;;;;;13.35;1.10;;;;;;;;;;5078817;28;20138;-75
2023/10/29 10:52:52;;;;;;;5.22;1.25;;;;;;;;;;5078143;28;20384;-76
2023/10/29 10:55:19;;;;;;;12.27;0.88;;;;;;;;;;5078531;28;20051;-76
2023/10/29 10:57:45;;;;;;;7.45;0.50;;;;;;;;;;5078891;28;20048;-72
2023/10/29 11:00:12;;;;;;;9.27;0.73;;;;;;;;;;5096159;28;20082;-75
2023/10/29 11:02:41;;;;;;;9.95;1.00;;;;;;;;;;5077827;28;20135;-75
2023/10/29 11:05:09;;;;;;;10.30;0.55;;;;;;;;;;5077813;28;20540;-75
2023/10/29 11:07:35;;;;;;;5.10;0.65;;;;;;;;;;5078771;28;20071;-75
2023/10/29 11:10:05;;;;;;;7.50;0.60;;;;;;;;;;5095987;28;20314;-73
2023/10/29 11:12:34;;;;;;;5.00;0.40;;;;;;;;;;5096073;28;20059;-74
2023/10/29 11:15:15;;;;;;;7.00;0.60;;;;;;;;;;5096388;28;20047;-74
2023/10/29 11:17:50;;;;;;;9.10;0.52;;;;;;;;;;5096453;28;20051;-74
2023/10/29 11:20:34;;;;;;;8.88;0.55;;;;;;;;;;5095794;28;20052;-74
2023/10/29 11:23:07;;;;;;;3.03;0.40;;;;;;;;;;5096742;28;20449;-73
2023/10/29 11:25:33;;;;;;;7.65;0.68;;;;;;;;;;5096099;28;20055;-73
2023/10/29 11:27:59;;;;;;;8.75;0.90;;;;;;;;;;5077597;28;20044;-73
2023/10/29 11:30:28;;;;;;;4.73;0.50;;;;;;;;;;5095768;28;20071;-73
2023/10/29 11:33:09;;;;;;;7.30;0.43;;;;;;;;;;5095592;28;20101;-77
2023/10/29 11:35:36;;;;;;;6.00;0.50;;;;;;;;;;5077716;28;20047;-75
2023/10/29 11:38:22;;;;;;;7.80;0.60;;;;;;;;;;5095591;28;20055;-75
2023/10/29 11:40:51;;;;;;;4.43;0.60;;;;;;;;;;5075917;28;20052;-73
2023/10/29 11:43:22;;;;;;;7.75;0.73;;;;;;;;;;5095314;28;20055;-72
2023/10/29 11:45:58;;;;;;;8.18;0.57;;;;;;;;;;5095889;28;20177;-75
2023/10/29 11:48:25;;;;;;;6.73;1.03;;;;;;;;;;5077107;28;20513;-73
2023/10/29 11:51:08;;;;;;;8.63;0.50;;;;;;;;;;5095282;28;20339;-76
2023/10/29 11:53:35;;;;;;;9.90;0.90;;;;;;;;;;5094892;28;20059;-74
2023/10/29 11:56:05;;;;;;;;;;;;;;;;;;5078240;28;20369;-75
2023/10/29 11:58:32;;;;;;;5.13;0.50;;;;;;;;;;5060811;28;20057;-76
2023/10/29 12:01:01;;;;;;;5.80;0.45;;;;;;;;;;5094948;28;20503;-76
2023/10/29 12:03:29;;;;;;;8.32;0.60;;;;;;;;;;5076924;28;20044;-74
2023/10/29 12:05:56;;;;;;;7.78;1.25;;;;;;;;;;5060218;28;20066;-77
2023/10/29 12:08:23;;;;;;;3.42;0.40;;;;;;;;;;5095249;28;20123;-77
2023/10/29 12:10:51;;;;;;;7.55;1.15;;;;;;;;;;5094663;28;20052;-77
2023/10/29 12:13:18;;;;;;;6.78;0.60;;;;;;;;;;5076955;28;20377;-74
2023/10/29 12:15:48;;;;;;;6.95;0.60;;;;;;;;;;5094678;28;20134;-74
2023/10/29 12:18:20;;;;;;;11.18;0.70;;;;;;;;;;5094794;28;20048;-75
2023/10/29 12:20:47;;;;;;;7.40;0.50;;;;;;;;;;5076679;28;20044;-75
2023/10/29 12:23:13;;;;;;;5.88;0.50;;;;;;;;;;5094985;28;20111;-76
2023/10/29 12:25:39;;;;;;;9.02;0.68;;;;;;;;;;5059774;28;20055;-75
2023/10/29 12:28:06;;;;;;;6.40;0.50;;;;;;;;;;5094721;28;20130;-79
2023/10/29 12:30:42;;;;;;;7.22;0.52;;;;;;;;;;5076781;28;20054;-75
2023/10/29 12:33:22;;;;;;;11.68;1.08;;;;;;;;;;5076614;28;20055;-75
2023/10/29 12:35:49;;;;;;;9.60;0.77;;;;;;;;;;5099275;28;20054;-76
2023/10/29 12:38:15;;;;;;;10.38;0.73;;;;;;;;;;5083145;28;20051;-74
2023/10/29 12:41:00;;;;;;;6.53;0.50;;;;;;;;;;5100952;28;20092;-75
2023/10/29 12:43:40;;;;;;;10.32;0.65;;;;;;;;;;5080480;28;20347;-76
2023/10/29 12:46:10;;;;;;;7.97;0.68;;;;;;;;;;5065300;28;20052;-75
2023/10/29 12:48:57;;;;;;;8.07;0.80;;;;;;;;;;5101894;28;20044;-74
2023/10/29 12:51:24;;;;;;;11.95;0.90;;;;;;;;;;5070557;28;20048;-73
2023/10/29 12:53:50;;;;;;;8.18;0.68;;;;;;;;;;5080065;28;20120;-75
2023/10/29 12:56:17;;;;;;;6.88;0.55;;;;;;;;;;5079067;28;20489;-75
2023/10/29 12:58:43;;;;;;;13.73;1.58;;;;;;;;;;5095417;28;20159;-76
2023/10/29 13:01:09;;;;;;;7.93;0.73;;;;;;;;;;5076414;28;20502;-73
2023/10/29 13:03:35;;;;;;;8.48;0.70;;;;;;;;;;5096642;28;20062;-76
2023/10/29 13:06:01;;;;;;;10.30;0.63;;;;;;;;;;5096350;28;20048;-75
2023/10/29 13:08:27;;;;;;;10.98;0.80;;;;;;;;;;5076592;28;20037;-75
2023/10/29 13:10:53;;;;;;;9.13;0.73;;;;;;;;;;5093556;28;20040;-76
2023/10/29 13:13:23;;;;;;;9.73;0.73;;;;;;;;;;5094029;28;20048;-77
2023/10/29 13:15:49;;;;;;;8.88;0.52;;;;;;;;;;5093765;28;20084;-74
2023/10/29 13:18:15;;;;;;;11.27;0.65;;;;;;;;;;5093488;28;20052;-73
2023/10/29 13:20:41;;;;;;;12.80;0.87;;;;;;;;;;5075721;28;20052;-76
2023/10/29 13:23:07;;;;;;;12.65;1.13;;;;;;;;;;5093656;28;20549;-73
2023/10/29 13:25:33;;;;;;;12.30;0.50;;;;;;;;;;5094946;28;20051;-76
2023/10/29 13:28:00;;;;;;;7.37;0.40;;;;;;;;;;5076340;28;20052;-77
2023/10/29 13:30:27;;;;;;;8.93;0.70;;;;;;;;;;5093775;28;20050;-76
2023/10/29 13:32:53;;;;;;;11.73;0.98;;;;;;;;;;5093956;28;20484;-79
2023/10/29 13:35:19;;;;;;;6.93;0.60;;;;;;;;;;5093487;28;20044;-76
2023/10/29 13:37:45;;;;;;;9.80;0.90;;;;;;;;;;5059162;28;20297;-77
2023/10/29 13:40:12;;;;;;;6.53;0.90;;;;;;;;;;5075947;28;20040;-78
2023/10/29 13:42:38;;;;;;;10.45;0.60;;;;;;;;;;5094161;28;20110;-79
2023/10/29 13:45:04;;;;;;;7.03;0.63;;;;;;;;;;5094680;28;20055;-78
2023/10/29 13:47:30;;;;;;;7.57;0.57;;;;;;;;;;5059727;28;20498;-76
2023/10/29 13:49:57;;;;;;;9.43;0.55;;;;;;;;;;5093492;28;20062;-78
2023/10/29 13:52:23;;;;;;;7.30;0.73;;;;;;;;;;5075504;28;20056;-76
2023/10/29 13:54:49;;;;;;;10.38;1.02;;;;;;;;;;5093292;28;20388;-73
2023/10/29 13:57:16;;;;;;;7.97;0.63;;;;;;;;;;5075311;28;20044;-75
2023/10/29 13:59:42;;;;;;;12.13;1.20;;;;;;;;;;5075176;28;20048;-78
2023/10/29 14:02:08;;;;;;;9.15;0.80;;;;;;;;;;5093128;28;20055;-76
2023/10/29 14:04:34;;;;;;;9.07;0.80;;;;;;;;;;5077489;28;20091;-75
2023/10/29 14:07:01;;;;;;;7.55;0.60;;;;;;;;;;5079307;28;20044;-79
2023/10/29 14:09:27;;;;;;;12.35;0.85;;;;;;;;;;5062591;28;20047;-78
2023/10/29 14:11:53;;;;;;;7.00;0.90;;;;;;;;;;5097396;28;20040;-75
2023/10/29 14:14:20;;;;;;;13.07;0.73;;;;;;;;;;5097948;28;20368;-79
2023/10/29 14:16:46;;;;;;;7.72;1.00;;;;;;;;;;5097213;28;20433;-75
2023/10/29 14:19:12;;;;;;;10.20;0.90;;;;;;;;;;5098324;28;20047;-77
2023/10/29 14:21:38;;;;;;;7.97;0.82;;;;;;;;;;5097365;28;20125;-78
2023/10/29 14:24:08;;;;;;;18.42;3.83;;;;;;;;;;5098082;28;20044;-76
2023/10/29 14:26:34;;;;;;;8.07;1.08;;;;;;;;;;5063432;28;20048;-77
2023/10/29 14:29:00;;;;;;;12.90;1.17;;;;;;;;;;5097561;28;20478;-77
2023/10/29 14:31:26;;;;;;;8.40;0.75;;;;;;;;;;5079253;28;20461;-80
2023/10/29 14:33:53;;;;;;;6.85;1.00;;;;;;;;;;5080541;28;20040;-77
2023/10/29 14:36:19;;;;;;;8.80;1.20;;;;;;;;;;5097673;28;20095;-76
2023/10/29 14:38:45;;;;;;;9.52;0.95;;;;;;;;;;5097229;28;20448;-78
2023/10/29 14:41:16;;;;;;;10.45;0.70;;;;;;;;;;5096578;28;20182;-75
2023/10/29 14:43:43;;;;;;;7.10;0.80;;;;;;;;;;5096692;28;20047;-74
2023/10/29 14:46:09;;;;;;;10.63;1.35;;;;;;;;;;5096301;28;20042;-76